sensor_id;sensor_type;location;lat;lon;timestamp;P1;durP1;ratioP1;P2;durP2;ratioP2
33954;SDS011;20233;50.804;7.126;2023-03-15T00:00:43;11.45;;;1.38;;
33954;SDS011;20233;50.804;7.126;2023-03-15T00:03:09;9.25;;;1.05;;
33954;SDS011;20233;50.804;7.126;2023-03-15T00:05:36;9.15;;;1.08;;
33954;SDS011;20233;50.804;7.126;2023-03-15T00:08:05;9.55;;;1.15;;
33954;SDS011;20233;50.804;7.126;2023-03-15T00:10:31;11.05;;;1.85;;
33954;SDS011;20233;50.804;7.126;2023-03-15T00:12:57;7.43;;;1.35;;
33954;SDS011;20233;50.804;7.126;2023-03-15T00:15:23;8.60;;;1.00;;
33954;SDS011;20233;50.804;7.126;2023-03-15T00:17:48;6.10;;;0.98;;
33954;SDS011;20233;50.804;7.126;2023-03-15T00:20:14;10.13;;;0.95;;
33954;SDS011;20233;50.804;7.126;2023-03-15T00:22:40;10.20;;;1.23;;
33954;SDS011;20233;50.804;7.126;2023-03-15T00:25:06;11.15;;;1.35;;
33954;SDS011;20233;50.804;7.126;2023-03-15T00:27:33;9.68;;;1.10;;
33954;SDS011;20233;50.804;7.126;2023-03-15T00:29:58;11.18;;;1.50;;
33954;SDS011;20233;50.804;7.126;2023-03-15T00:32:24;5.28;;;1.45;;
33954;SDS011;20233;50.804;7.126;2023-03-15T00:34:49;11.45;;;1.48;;
33954;SDS011;20233;50.804;7.126;2023-03-15T00:37:19;13.98;;;2.25;;
33954;SDS011;20233;50.804;7.126;2023-03-15T00:39:46;6.13;;;1.48;;
33954;SDS011;20233;50.804;7.126;2023-03-15T00:42:12;6.53;;;1.70;;
33954;SDS011;20233;50.804;7.126;2023-03-15T00:44:39;12.82;;;2.13;;
33954;SDS011;20233;50.804;7.126;2023-03-15T00:47:06;11.50;;;2.55;;
33954;SDS011;20233;50.804;7.126;2023-03-15T00:49:34;9.35;;;2.30;;
33954;SDS011;20233;50.804;7.126;2023-03-15T00:52:00;12.93;;;2.13;;
33954;SDS011;20233;50.804;7.126;2023-03-15T00:54:25;9.63;;;2.30;;
33954;SDS011;20233;50.804;7.126;2023-03-15T00:56:51;10.45;;;3.22;;
33954;SDS011;20233;50.804;7.126;2023-03-15T00:59:16;8.05;;;1.65;;
33954;SDS011;20233;50.804;7.126;2023-03-15T01:01:42;8.40;;;2.15;;
33954;SDS011;20233;50.804;7.126;2023-03-15T01:04:09;7.10;;;2.03;;
33954;SDS011;20233;50.804;7.126;2023-03-15T01:06:38;20.20;;;3.80;;
33954;SDS011;20233;50.804;7.126;2023-03-15T01:09:06;7.03;;;1.90;;
33954;SDS011;20233;50.804;7.126;2023-03-15T01:11:32;8.90;;;2.72;;
33954;SDS011;20233;50.804;7.126;2023-03-15T01:13:58;6.80;;;2.40;;
33954;SDS011;20233;50.804;7.126;2023-03-15T01:16:25;12.10;;;3.67;;
33954;SDS011;20233;50.804;7.126;2023-03-15T01:18:51;10.18;;;2.95;;
33954;SDS011;20233;50.804;7.126;2023-03-15T01:21:17;10.02;;;3.10;;
33954;SDS011;20233;50.804;7.126;2023-03-15T01:23:44;14.13;;;2.97;;
33954;SDS011;20233;50.804;7.126;2023-03-15T01:26:11;12.18;;;3.35;;
33954;SDS011;20233;50.804;7.126;2023-03-15T01:28:38;14.95;;;4.28;;
33954;SDS011;20233;50.804;7.126;2023-03-15T01:31:04;14.60;;;4.88;;
33954;SDS011;20233;50.804;7.126;2023-03-15T01:33:30;17.83;;;4.38;;
33954;SDS011;20233;50.804;7.126;2023-03-15T01:36:05;13.35;;;4.55;;
33954;SDS011;20233;50.804;7.126;2023-03-15T01:38:31;13.60;;;4.78;;
33954;SDS011;20233;50.804;7.126;2023-03-15T01:40:58;13.63;;;4.45;;
33954;SDS011;20233;50.804;7.126;2023-03-15T01:43:25;9.00;;;3.83;;
33954;SDS011;20233;50.804;7.126;2023-03-15T01:48:24;13.90;;;4.82;;
33954;SDS011;20233;50.804;7.126;2023-03-15T01:50:59;14.30;;;5.05;;
33954;SDS011;20233;50.804;7.126;2023-03-15T01:53:29;15.32;;;4.90;;
33954;SDS011;20233;50.804;7.126;2023-03-15T01:55:56;13.85;;;5.38;;
33954;SDS011;20233;50.804;7.126;2023-03-15T01:58:23;15.10;;;4.63;;
33954;SDS011;20233;50.804;7.126;2023-03-15T02:00:51;17.30;;;4.70;;
33954;SDS011;20233;50.804;7.126;2023-03-15T02:03:20;14.82;;;4.90;;
33954;SDS011;20233;50.804;7.126;2023-03-15T02:05:51;14.30;;;4.35;;
33954;SDS011;20233;50.804;7.126;2023-03-15T02:08:21;14.43;;;6.18;;
33954;SDS011;20233;50.804;7.126;2023-03-15T02:10:54;11.70;;;4.18;;
33954;SDS011;20233;50.804;7.126;2023-03-15T02:13:22;14.35;;;4.57;;
33954;SDS011;20233;50.804;7.126;2023-03-15T02:15:50;13.27;;;4.82;;
33954;SDS011;20233;50.804;7.126;2023-03-15T02:18:17;14.00;;;4.75;;
33954;SDS011;20233;50.804;7.126;2023-03-15T02:23:43;13.95;;;4.88;;
33954;SDS011;20233;50.804;7.126;2023-03-15T02:26:24;13.48;;;4.78;;
33954;SDS011;20233;50.804;7.126;2023-03-15T02:28:57;16.55;;;4.93;;
33954;SDS011;20233;50.804;7.126;2023-03-15T02:31:23;9.02;;;4.05;;
33954;SDS011;20233;50.804;7.126;2023-03-15T02:33:50;13.60;;;4.80;;
33954;SDS011;20233;50.804;7.126;2023-03-15T02:38:50;11.98;;;4.40;;
33954;SDS011;20233;50.804;7.126;2023-03-15T02:41:27;14.48;;;4.72;;
33954;SDS011;20233;50.804;7.126;2023-03-15T02:44:01;14.75;;;4.45;;
33954;SDS011;20233;50.804;7.126;2023-03-15T02:46:30;15.80;;;4.65;;
33954;SDS011;20233;50.804;7.126;2023-03-15T02:48:56;16.20;;;4.63;;
33954;SDS011;20233;50.804;7.126;2023-03-15T02:51:23;13.10;;;4.10;;
33954;SDS011;20233;50.804;7.126;2023-03-15T02:53:52;15.68;;;6.40;;
33954;SDS011;20233;50.804;7.126;2023-03-15T02:56:18;12.40;;;4.50;;
33954;SDS011;20233;50.804;7.126;2023-03-15T02:58:43;15.32;;;4.00;;
33954;SDS011;20233;50.804;7.126;2023-03-15T03:01:10;12.18;;;3.88;;
33954;SDS011;20233;50.804;7.126;2023-03-15T03:03:37;12.93;;;4.22;;
33954;SDS011;20233;50.804;7.126;2023-03-15T03:06:06;9.77;;;3.70;;
33954;SDS011;20233;50.804;7.126;2023-03-15T03:08:32;11.40;;;4.20;;
33954;SDS011;20233;50.804;7.126;2023-03-15T03:10:57;12.23;;;4.57;;
33954;SDS011;20233;50.804;7.126;2023-03-15T03:13:23;12.10;;;4.72;;
33954;SDS011;20233;50.804;7.126;2023-03-15T03:15:49;18.50;;;5.18;;
33954;SDS011;20233;50.804;7.126;2023-03-15T03:18:22;12.23;;;4.50;;
33954;SDS011;20233;50.804;7.126;2023-03-15T03:20:55;14.32;;;5.18;;
33954;SDS011;20233;50.804;7.126;2023-03-15T03:23:22;14.20;;;5.85;;
33954;SDS011;20233;50.804;7.126;2023-03-15T03:25:50;12.23;;;4.88;;
33954;SDS011;20233;50.804;7.126;2023-03-15T03:28:20;11.45;;;4.70;;
33954;SDS011;20233;50.804;7.126;2023-03-15T03:30:46;10.32;;;4.20;;
33954;SDS011;20233;50.804;7.126;2023-03-15T03:33:11;10.20;;;5.22;;
33954;SDS011;20233;50.804;7.126;2023-03-15T03:35:37;12.50;;;4.85;;
33954;SDS011;20233;50.804;7.126;2023-03-15T03:38:02;12.93;;;4.55;;
33954;SDS011;20233;50.804;7.126;2023-03-15T03:40:28;10.45;;;4.72;;
33954;SDS011;20233;50.804;7.126;2023-03-15T03:42:53;17.80;;;5.10;;
33954;SDS011;20233;50.804;7.126;2023-03-15T03:45:19;10.15;;;4.32;;
33954;SDS011;20233;50.804;7.126;2023-03-15T03:47:45;9.73;;;4.85;;
33954;SDS011;20233;50.804;7.126;2023-03-15T03:50:11;13.88;;;5.00;;
33954;SDS011;20233;50.804;7.126;2023-03-15T03:52:37;10.68;;;4.97;;
33954;SDS011;20233;50.804;7.126;2023-03-15T03:55:03;15.55;;;5.10;;
33954;SDS011;20233;50.804;7.126;2023-03-15T03:57:28;10.57;;;4.93;;
33954;SDS011;20233;50.804;7.126;2023-03-15T03:59:54;13.35;;;6.35;;
33954;SDS011;20233;50.804;7.126;2023-03-15T04:02:22;16.33;;;5.65;;
33954;SDS011;20233;50.804;7.126;2023-03-15T04:04:48;16.90;;;6.40;;
33954;SDS011;20233;50.804;7.126;2023-03-15T04:07:14;14.98;;;6.60;;
33954;SDS011;20233;50.804;7.126;2023-03-15T04:09:40;17.35;;;6.47;;
33954;SDS011;20233;50.804;7.126;2023-03-15T04:12:05;13.60;;;5.82;;
33954;SDS011;20233;50.804;7.126;2023-03-15T04:14:31;14.10;;;5.38;;
33954;SDS011;20233;50.804;7.126;2023-03-15T04:16:57;12.30;;;5.78;;
33954;SDS011;20233;50.804;7.126;2023-03-15T04:19:23;13.18;;;5.60;;
33954;SDS011;20233;50.804;7.126;2023-03-15T04:21:48;13.77;;;5.63;;
33954;SDS011;20233;50.804;7.126;2023-03-15T04:24:16;11.95;;;5.53;;
33954;SDS011;20233;50.804;7.126;2023-03-15T04:26:41;19.65;;;6.53;;
33954;SDS011;20233;50.804;7.126;2023-03-15T04:29:08;14.45;;;6.45;;
33954;SDS011;20233;50.804;7.126;2023-03-15T04:31:34;13.77;;;6.07;;
33954;SDS011;20233;50.804;7.126;2023-03-15T04:34:02;18.23;;;6.85;;
33954;SDS011;20233;50.804;7.126;2023-03-15T04:36:28;11.40;;;6.70;;
33954;SDS011;20233;50.804;7.126;2023-03-15T04:38:55;12.98;;;6.03;;
33954;SDS011;20233;50.804;7.126;2023-03-15T04:41:29;15.15;;;6.20;;
33954;SDS011;20233;50.804;7.126;2023-03-15T04:43:58;16.85;;;6.10;;
33954;SDS011;20233;50.804;7.126;2023-03-15T04:46:24;16.90;;;7.15;;
33954;SDS011;20233;50.804;7.126;2023-03-15T04:48:50;16.60;;;6.90;;
33954;SDS011;20233;50.804;7.126;2023-03-15T04:51:15;15.88;;;7.60;;
33954;SDS011;20233;50.804;7.126;2023-03-15T04:53:41;12.95;;;6.97;;
33954;SDS011;20233;50.804;7.126;2023-03-15T04:56:06;20.25;;;6.85;;
33954;SDS011;20233;50.804;7.126;2023-03-15T04:58:32;15.85;;;7.45;;
33954;SDS011;20233;50.804;7.126;2023-03-15T05:00:57;15.65;;;7.88;;
33954;SDS011;20233;50.804;7.126;2023-03-15T05:03:23;13.57;;;6.88;;
33954;SDS011;20233;50.804;7.126;2023-03-15T05:05:49;15.30;;;8.68;;
33954;SDS011;20233;50.804;7.126;2023-03-15T05:08:14;21.25;;;8.63;;
33954;SDS011;20233;50.804;7.126;2023-03-15T05:10:39;19.63;;;8.30;;
33954;SDS011;20233;50.804;7.126;2023-03-15T05:13:05;17.20;;;8.40;;
33954;SDS011;20233;50.804;7.126;2023-03-15T05:15:31;16.92;;;9.07;;
33954;SDS011;20233;50.804;7.126;2023-03-15T05:17:56;20.02;;;9.48;;
33954;SDS011;20233;50.804;7.126;2023-03-15T05:20:22;23.45;;;9.00;;
33954;SDS011;20233;50.804;7.126;2023-03-15T05:22:47;18.08;;;7.97;;
33954;SDS011;20233;50.804;7.126;2023-03-15T05:25:13;22.52;;;9.88;;
33954;SDS011;20233;50.804;7.126;2023-03-15T05:27:39;20.83;;;8.32;;
33954;SDS011;20233;50.804;7.126;2023-03-15T05:30:05;20.35;;;8.73;;
33954;SDS011;20233;50.804;7.126;2023-03-15T05:32:32;17.20;;;7.53;;
33954;SDS011;20233;50.804;7.126;2023-03-15T05:37:30;18.95;;;8.05;;
33954;SDS011;20233;50.804;7.126;2023-03-15T05:39:56;20.67;;;8.80;;
33954;SDS011;20233;50.804;7.126;2023-03-15T05:42:22;17.90;;;8.00;;
33954;SDS011;20233;50.804;7.126;2023-03-15T05:44:53;17.75;;;7.10;;
33954;SDS011;20233;50.804;7.126;2023-03-15T05:47:19;23.00;;;8.93;;
33954;SDS011;20233;50.804;7.126;2023-03-15T05:49:45;14.45;;;5.97;;
33954;SDS011;20233;50.804;7.126;2023-03-15T05:52:11;14.32;;;5.97;;
33954;SDS011;20233;50.804;7.126;2023-03-15T05:54:37;13.80;;;5.90;;
33954;SDS011;20233;50.804;7.126;2023-03-15T05:57:02;9.27;;;4.95;;
33954;SDS011;20233;50.804;7.126;2023-03-15T05:59:28;11.93;;;4.85;;
33954;SDS011;20233;50.804;7.126;2023-03-15T06:01:55;14.02;;;4.68;;
33954;SDS011;20233;50.804;7.126;2023-03-15T06:04:20;8.63;;;3.67;;
33954;SDS011;20233;50.804;7.126;2023-03-15T06:06:46;9.15;;;3.90;;
33954;SDS011;20233;50.804;7.126;2023-03-15T06:09:12;12.13;;;3.97;;
33954;SDS011;20233;50.804;7.126;2023-03-15T06:11:37;8.68;;;3.63;;
33954;SDS011;20233;50.804;7.126;2023-03-15T06:14:03;9.48;;;3.22;;
33954;SDS011;20233;50.804;7.126;2023-03-15T06:16:29;9.15;;;3.42;;
33954;SDS011;20233;50.804;7.126;2023-03-15T06:18:55;5.93;;;3.25;;
33954;SDS011;20233;50.804;7.126;2023-03-15T06:21:21;7.85;;;3.63;;
33954;SDS011;20233;50.804;7.126;2023-03-15T06:23:46;7.00;;;3.65;;
33954;SDS011;20233;50.804;7.126;2023-03-15T06:26:12;9.98;;;4.25;;
33954;SDS011;20233;50.804;7.126;2023-03-15T06:28:39;10.23;;;4.95;;
33954;SDS011;20233;50.804;7.126;2023-03-15T06:31:12;11.52;;;7.18;;
33954;SDS011;20233;50.804;7.126;2023-03-15T06:33:38;12.82;;;6.72;;
33954;SDS011;20233;50.804;7.126;2023-03-15T06:36:04;13.70;;;7.70;;
33954;SDS011;20233;50.804;7.126;2023-03-15T06:38:30;13.77;;;7.72;;
33954;SDS011;20233;50.804;7.126;2023-03-15T06:40:57;13.80;;;7.78;;
33954;SDS011;20233;50.804;7.126;2023-03-15T06:43:29;14.13;;;7.75;;
33954;SDS011;20233;50.804;7.126;2023-03-15T06:46:08;14.48;;;7.95;;
33954;SDS011;20233;50.804;7.126;2023-03-15T06:48:33;14.45;;;8.80;;
33954;SDS011;20233;50.804;7.126;2023-03-15T06:50:59;13.73;;;8.40;;
33954;SDS011;20233;50.804;7.126;2023-03-15T06:53:24;14.27;;;7.70;;
33954;SDS011;20233;50.804;7.126;2023-03-15T06:55:50;13.75;;;8.45;;
33954;SDS011;20233;50.804;7.126;2023-03-15T06:58:16;12.25;;;8.05;;
33954;SDS011;20233;50.804;7.126;2023-03-15T07:00:42;14.75;;;8.50;;
33954;SDS011;20233;50.804;7.126;2023-03-15T07:03:08;15.57;;;8.95;;
33954;SDS011;20233;50.804;7.126;2023-03-15T07:05:34;17.40;;;8.60;;
33954;SDS011;20233;50.804;7.126;2023-03-15T07:08:01;16.88;;;9.13;;
33954;SDS011;20233;50.804;7.126;2023-03-15T07:10:27;12.77;;;8.35;;
33954;SDS011;20233;50.804;7.126;2023-03-15T07:12:52;15.82;;;8.90;;
33954;SDS011;20233;50.804;7.126;2023-03-15T07:15:18;15.63;;;9.25;;
33954;SDS011;20233;50.804;7.126;2023-03-15T07:17:44;15.35;;;9.43;;
33954;SDS011;20233;50.804;7.126;2023-03-15T07:20:09;17.58;;;9.82;;
33954;SDS011;20233;50.804;7.126;2023-03-15T07:22:35;18.42;;;10.13;;
33954;SDS011;20233;50.804;7.126;2023-03-15T07:25:01;16.00;;;10.00;;
33954;SDS011;20233;50.804;7.126;2023-03-15T07:27:27;16.33;;;10.18;;
33954;SDS011;20233;50.804;7.126;2023-03-15T07:29:53;18.13;;;10.63;;
33954;SDS011;20233;50.804;7.126;2023-03-15T07:32:19;17.15;;;9.93;;
33954;SDS011;20233;50.804;7.126;2023-03-15T07:34:45;16.55;;;10.07;;
33954;SDS011;20233;50.804;7.126;2023-03-15T07:37:10;19.05;;;10.60;;
33954;SDS011;20233;50.804;7.126;2023-03-15T07:39:36;20.15;;;10.70;;
33954;SDS011;20233;50.804;7.126;2023-03-15T07:42:02;17.25;;;10.63;;
33954;SDS011;20233;50.804;7.126;2023-03-15T07:44:28;22.42;;;11.55;;
33954;SDS011;20233;50.804;7.126;2023-03-15T07:46:53;18.98;;;11.38;;
33954;SDS011;20233;50.804;7.126;2023-03-15T07:49:19;21.48;;;11.60;;
33954;SDS011;20233;50.804;7.126;2023-03-15T07:51:45;21.15;;;12.25;;
33954;SDS011;20233;50.804;7.126;2023-03-15T07:54:11;20.17;;;11.38;;
33954;SDS011;20233;50.804;7.126;2023-03-15T07:56:36;23.52;;;12.00;;
33954;SDS011;20233;50.804;7.126;2023-03-15T07:59:02;20.27;;;12.63;;
33954;SDS011;20233;50.804;7.126;2023-03-15T08:01:28;21.88;;;12.10;;
33954;SDS011;20233;50.804;7.126;2023-03-15T08:03:54;19.63;;;12.10;;
33954;SDS011;20233;50.804;7.126;2023-03-15T08:06:19;20.80;;;12.27;;
33954;SDS011;20233;50.804;7.126;2023-03-15T08:08:45;19.33;;;12.20;;
33954;SDS011;20233;50.804;7.126;2023-03-15T08:11:11;19.23;;;12.63;;
33954;SDS011;20233;50.804;7.126;2023-03-15T08:13:36;25.08;;;13.95;;
33954;SDS011;20233;50.804;7.126;2023-03-15T08:16:02;18.08;;;11.82;;
33954;SDS011;20233;50.804;7.126;2023-03-15T08:18:29;19.27;;;10.95;;
33954;SDS011;20233;50.804;7.126;2023-03-15T08:20:55;18.63;;;11.65;;
33954;SDS011;20233;50.804;7.126;2023-03-15T08:23:21;19.38;;;10.98;;
33954;SDS011;20233;50.804;7.126;2023-03-15T08:25:47;20.27;;;11.88;;
33954;SDS011;20233;50.804;7.126;2023-03-15T08:28:13;15.35;;;10.27;;
33954;SDS011;20233;50.804;7.126;2023-03-15T08:30:39;19.30;;;11.20;;
33954;SDS011;20233;50.804;7.126;2023-03-15T08:33:05;20.60;;;10.73;;
33954;SDS011;20233;50.804;7.126;2023-03-15T08:35:31;18.85;;;11.18;;
33954;SDS011;20233;50.804;7.126;2023-03-15T08:37:58;18.67;;;10.38;;
33954;SDS011;20233;50.804;7.126;2023-03-15T08:40:26;18.75;;;11.27;;
33954;SDS011;20233;50.804;7.126;2023-03-15T08:42:52;18.05;;;9.27;;
33954;SDS011;20233;50.804;7.126;2023-03-15T08:45:18;19.80;;;12.10;;
33954;SDS011;20233;50.804;7.126;2023-03-15T08:47:44;18.65;;;11.75;;
33954;SDS011;20233;50.804;7.126;2023-03-15T08:50:10;19.27;;;12.63;;
33954;SDS011;20233;50.804;7.126;2023-03-15T08:52:38;19.20;;;11.57;;
33954;SDS011;20233;50.804;7.126;2023-03-15T08:55:04;24.08;;;13.55;;
33954;SDS011;20233;50.804;7.126;2023-03-15T08:57:31;17.88;;;11.32;;
33954;SDS011;20233;50.804;7.126;2023-03-15T09:00:00;22.08;;;11.90;;
33954;SDS011;20233;50.804;7.126;2023-03-15T09:02:34;18.08;;;12.00;;
33954;SDS011;20233;50.804;7.126;2023-03-15T09:05:01;21.02;;;13.13;;
33954;SDS011;20233;50.804;7.126;2023-03-15T09:07:28;18.88;;;11.25;;
33954;SDS011;20233;50.804;7.126;2023-03-15T09:09:53;16.27;;;8.63;;
33954;SDS011;20233;50.804;7.126;2023-03-15T09:12:19;14.50;;;9.50;;
33954;SDS011;20233;50.804;7.126;2023-03-15T09:14:45;17.75;;;10.18;;
33954;SDS011;20233;50.804;7.126;2023-03-15T09:17:11;17.65;;;10.05;;
33954;SDS011;20233;50.804;7.126;2023-03-15T09:19:37;17.27;;;9.40;;
33954;SDS011;20233;50.804;7.126;2023-03-15T09:22:03;14.07;;;8.18;;
33954;SDS011;20233;50.804;7.126;2023-03-15T09:24:29;14.50;;;8.77;;
33954;SDS011;20233;50.804;7.126;2023-03-15T09:26:54;13.48;;;8.00;;
33954;SDS011;20233;50.804;7.126;2023-03-15T09:29:20;15.00;;;7.78;;
33954;SDS011;20233;50.804;7.126;2023-03-15T09:31:46;18.48;;;7.35;;
33954;SDS011;20233;50.804;7.126;2023-03-15T09:34:11;14.43;;;8.00;;
33954;SDS011;20233;50.804;7.126;2023-03-15T09:36:37;11.80;;;7.10;;
33954;SDS011;20233;50.804;7.126;2023-03-15T09:39:02;11.52;;;6.22;;
33954;SDS011;20233;50.804;7.126;2023-03-15T09:44:20;11.45;;;7.03;;
33954;SDS011;20233;50.804;7.126;2023-03-15T09:47:14;10.60;;;6.80;;
33954;SDS011;20233;50.804;7.126;2023-03-15T09:52:50;8.23;;;4.82;;
33954;SDS011;20233;50.804;7.126;2023-03-15T09:55:29;12.95;;;6.88;;
33954;SDS011;20233;50.804;7.126;2023-03-15T09:58:02;10.57;;;6.57;;
33954;SDS011;20233;50.804;7.126;2023-03-15T10:00:44;13.13;;;7.45;;
33954;SDS011;20233;50.804;7.126;2023-03-15T10:06:13;11.50;;;7.13;;
33954;SDS011;20233;50.804;7.126;2023-03-15T10:08:50;14.80;;;7.00;;
33954;SDS011;20233;50.804;7.126;2023-03-15T10:11:22;10.30;;;6.43;;
33954;SDS011;20233;50.804;7.126;2023-03-15T10:14:13;12.63;;;6.05;;
33954;SDS011;20233;50.804;7.126;2023-03-15T10:16:50;10.23;;;6.07;;
33954;SDS011;20233;50.804;7.126;2023-03-15T10:19:22;10.95;;;4.95;;
33954;SDS011;20233;50.804;7.126;2023-03-15T10:22:00;11.15;;;4.88;;
33954;SDS011;20233;50.804;7.126;2023-03-15T10:24:58;5.78;;;3.50;;
33954;SDS011;20233;50.804;7.126;2023-03-15T10:27:31;7.13;;;3.28;;
33954;SDS011;20233;50.804;7.126;2023-03-15T10:30:14;10.25;;;4.15;;
33954;SDS011;20233;50.804;7.126;2023-03-15T10:32:48;8.35;;;2.67;;
33954;SDS011;20233;50.804;7.126;2023-03-15T10:35:19;11.18;;;3.42;;
33954;SDS011;20233;50.804;7.126;2023-03-15T10:37:45;6.97;;;2.97;;
33954;SDS011;20233;50.804;7.126;2023-03-15T10:40:12;7.68;;;3.28;;
33954;SDS011;20233;50.804;7.126;2023-03-15T10:42:41;5.38;;;2.53;;
33954;SDS011;20233;50.804;7.126;2023-03-15T10:47:47;6.78;;;2.72;;
33954;SDS011;20233;50.804;7.126;2023-03-15T10:50:27;4.35;;;2.58;;
33954;SDS011;20233;50.804;7.126;2023-03-15T10:52:55;7.50;;;3.50;;
33954;SDS011;20233;50.804;7.126;2023-03-15T10:55:43;8.18;;;3.75;;
33954;SDS011;20233;50.804;7.126;2023-03-15T10:58:27;10.95;;;3.65;;
33954;SDS011;20233;50.804;7.126;2023-03-15T11:01:07;8.02;;;3.35;;
33954;SDS011;20233;50.804;7.126;2023-03-15T11:03:54;6.43;;;2.75;;
33954;SDS011;20233;50.804;7.126;2023-03-15T11:06:51;8.35;;;3.53;;
33954;SDS011;20233;50.804;7.126;2023-03-15T11:09:36;8.18;;;3.08;;
33954;SDS011;20233;50.804;7.126;2023-03-15T11:12:23;9.25;;;3.38;;
33954;SDS011;20233;50.804;7.126;2023-03-15T11:14:56;7.72;;;3.13;;
33954;SDS011;20233;50.804;7.126;2023-03-15T11:17:27;6.70;;;3.13;;
33954;SDS011;20233;50.804;7.126;2023-03-15T11:20:00;5.35;;;3.42;;
33954;SDS011;20233;50.804;7.126;2023-03-15T11:22:41;9.20;;;2.83;;
33954;SDS011;20233;50.804;7.126;2023-03-15T11:25:12;6.20;;;3.13;;
33954;SDS011;20233;50.804;7.126;2023-03-15T11:27:40;6.60;;;2.47;;
33954;SDS011;20233;50.804;7.126;2023-03-15T11:30:12;7.40;;;3.00;;
33954;SDS011;20233;50.804;7.126;2023-03-15T11:32:42;4.88;;;2.75;;
33954;SDS011;20233;50.804;7.126;2023-03-15T11:35:14;8.50;;;2.67;;
33954;SDS011;20233;50.804;7.126;2023-03-15T11:37:53;12.75;;;3.38;;
33954;SDS011;20233;50.804;7.126;2023-03-15T11:42:57;8.73;;;2.20;;
33954;SDS011;20233;50.804;7.126;2023-03-15T11:48:19;6.50;;;2.90;;
33954;SDS011;20233;50.804;7.126;2023-03-15T11:50:47;9.13;;;3.85;;
33954;SDS011;20233;50.804;7.126;2023-03-15T11:53:16;8.30;;;2.78;;
33954;SDS011;20233;50.804;7.126;2023-03-15T11:55:49;8.15;;;1.55;;
33954;SDS011;20233;50.804;7.126;2023-03-15T12:01:03;9.68;;;2.13;;
33954;SDS011;20233;50.804;7.126;2023-03-15T12:03:35;3.15;;;1.30;;
33954;SDS011;20233;50.804;7.126;2023-03-15T12:06:04;4.65;;;1.33;;
33954;SDS011;20233;50.804;7.126;2023-03-15T12:08:43;7.50;;;3.08;;
33954;SDS011;20233;50.804;7.126;2023-03-15T12:16:31;8.52;;;2.97;;
33954;SDS011;20233;50.804;7.126;2023-03-15T12:19:19;10.05;;;3.28;;
33954;SDS011;20233;50.804;7.126;2023-03-15T12:21:50;2.83;;;0.82;;
33954;SDS011;20233;50.804;7.126;2023-03-15T12:24:28;6.85;;;1.67;;
33954;SDS011;20233;50.804;7.126;2023-03-15T12:27:14;6.00;;;2.10;;
33954;SDS011;20233;50.804;7.126;2023-03-15T12:29:44;4.50;;;1.10;;
33954;SDS011;20233;50.804;7.126;2023-03-15T12:32:14;8.32;;;1.60;;
33954;SDS011;20233;50.804;7.126;2023-03-15T12:34:46;6.57;;;2.90;;
33954;SDS011;20233;50.804;7.126;2023-03-15T12:37:19;9.75;;;2.47;;
33954;SDS011;20233;50.804;7.126;2023-03-15T12:59:19;4.85;;;0.90;;
33954;SDS011;20233;50.804;7.126;2023-03-15T13:01:54;5.55;;;1.00;;
33954;SDS011;20233;50.804;7.126;2023-03-15T13:04:21;4.53;;;1.05;;
33954;SDS011;20233;50.804;7.126;2023-03-15T13:09:49;3.88;;;0.60;;
33954;SDS011;20233;50.804;7.126;2023-03-15T13:15:15;4.93;;;0.40;;
33954;SDS011;20233;50.804;7.126;2023-03-15T13:17:47;5.30;;;0.50;;
33954;SDS011;20233;50.804;7.126;2023-03-15T13:23:13;4.13;;;0.60;;
33954;SDS011;20233;50.804;7.126;2023-03-15T13:28:50;4.82;;;0.68;;
33954;SDS011;20233;50.804;7.126;2023-03-15T13:31:41;4.47;;;0.50;;
33954;SDS011;20233;50.804;7.126;2023-03-15T13:36:46;3.42;;;0.55;;
33954;SDS011;20233;50.804;7.126;2023-03-15T13:44:28;4.43;;;0.85;;
33954;SDS011;20233;50.804;7.126;2023-03-15T13:46:56;4.00;;;0.85;;
33954;SDS011;20233;50.804;7.126;2023-03-15T13:49:23;5.72;;;0.77;;
33954;SDS011;20233;50.804;7.126;2023-03-15T13:51:55;9.02;;;0.60;;
33954;SDS011;20233;50.804;7.126;2023-03-15T13:54:32;3.80;;;0.47;;
33954;SDS011;20233;50.804;7.126;2023-03-15T13:57:05;2.95;;;0.60;;
33954;SDS011;20233;50.804;7.126;2023-03-15T14:02:20;4.00;;;0.77;;
33954;SDS011;20233;50.804;7.126;2023-03-15T14:04:55;3.75;;;1.00;;
33954;SDS011;20233;50.804;7.126;2023-03-15T14:12:51;4.15;;;1.00;;
33954;SDS011;20233;50.804;7.126;2023-03-15T14:15:26;6.10;;;1.33;;
33954;SDS011;20233;50.804;7.126;2023-03-15T14:20:44;3.05;;;0.70;;
33954;SDS011;20233;50.804;7.126;2023-03-15T14:23:18;2.80;;;0.85;;
33954;SDS011;20233;50.804;7.126;2023-03-15T14:26:00;5.97;;;1.33;;
33954;SDS011;20233;50.804;7.126;2023-03-15T14:28:52;10.05;;;1.42;;
33954;SDS011;20233;50.804;7.126;2023-03-15T14:31:23;4.20;;;1.08;;
33954;SDS011;20233;50.804;7.126;2023-03-15T14:34:03;4.55;;;0.93;;
33954;SDS011;20233;50.804;7.126;2023-03-15T14:36:42;5.55;;;1.02;;
33954;SDS011;20233;50.804;7.126;2023-03-15T14:42:01;5.55;;;1.50;;
33954;SDS011;20233;50.804;7.126;2023-03-15T14:44:47;3.83;;;1.35;;
33954;SDS011;20233;50.804;7.126;2023-03-15T14:47:14;6.88;;;1.48;;
33954;SDS011;20233;50.804;7.126;2023-03-15T14:49:41;5.68;;;1.10;;
33954;SDS011;20233;50.804;7.126;2023-03-15T14:52:10;7.68;;;1.27;;
33954;SDS011;20233;50.804;7.126;2023-03-15T14:54:38;5.25;;;0.93;;
33954;SDS011;20233;50.804;7.126;2023-03-15T14:57:12;4.05;;;1.20;;
33954;SDS011;20233;50.804;7.126;2023-03-15T14:59:38;4.25;;;1.17;;
33954;SDS011;20233;50.804;7.126;2023-03-15T15:02:05;5.28;;;1.05;;
33954;SDS011;20233;50.804;7.126;2023-03-15T15:04:36;4.00;;;1.23;;
33954;SDS011;20233;50.804;7.126;2023-03-15T15:07:03;5.47;;;0.90;;
33954;SDS011;20233;50.804;7.126;2023-03-15T15:09:32;4.18;;;0.75;;
33954;SDS011;20233;50.804;7.126;2023-03-15T15:12:00;6.88;;;1.48;;
33954;SDS011;20233;50.804;7.126;2023-03-15T15:14:27;2.90;;;0.88;;
33954;SDS011;20233;50.804;7.126;2023-03-15T15:16:53;4.95;;;0.90;;
33954;SDS011;20233;50.804;7.126;2023-03-15T15:19:19;3.67;;;0.60;;
33954;SDS011;20233;50.804;7.126;2023-03-15T15:21:46;6.13;;;1.10;;
33954;SDS011;20233;50.804;7.126;2023-03-15T15:24:14;2.95;;;0.65;;
33954;SDS011;20233;50.804;7.126;2023-03-15T15:26:41;4.07;;;0.90;;
33954;SDS011;20233;50.804;7.126;2023-03-15T15:29:10;4.43;;;0.52;;
33954;SDS011;20233;50.804;7.126;2023-03-15T15:31:38;5.40;;;0.85;;
33954;SDS011;20233;50.804;7.126;2023-03-15T15:34:05;5.03;;;0.45;;
33954;SDS011;20233;50.804;7.126;2023-03-15T15:36:34;5.30;;;0.80;;
33954;SDS011;20233;50.804;7.126;2023-03-15T15:39:03;3.78;;;0.57;;
33954;SDS011;20233;50.804;7.126;2023-03-15T15:41:39;3.35;;;0.50;;
33954;SDS011;20233;50.804;7.126;2023-03-15T15:44:09;3.58;;;0.57;;
33954;SDS011;20233;50.804;7.126;2023-03-15T15:46:41;3.28;;;0.40;;
33954;SDS011;20233;50.804;7.126;2023-03-15T15:49:08;3.95;;;0.52;;
33954;SDS011;20233;50.804;7.126;2023-03-15T15:51:38;3.60;;;0.70;;
33954;SDS011;20233;50.804;7.126;2023-03-15T15:54:14;2.33;;;0.43;;
33954;SDS011;20233;50.804;7.126;2023-03-15T15:56:47;3.70;;;0.75;;
33954;SDS011;20233;50.804;7.126;2023-03-15T15:59:16;2.85;;;0.40;;
33954;SDS011;20233;50.804;7.126;2023-03-15T16:01:44;2.67;;;0.40;;
33954;SDS011;20233;50.804;7.126;2023-03-15T16:04:15;3.65;;;0.30;;
33954;SDS011;20233;50.804;7.126;2023-03-15T16:06:42;5.35;;;0.43;;
33954;SDS011;20233;50.804;7.126;2023-03-15T16:09:17;4.30;;;0.32;;
33954;SDS011;20233;50.804;7.126;2023-03-15T16:11:45;6.30;;;0.52;;
33954;SDS011;20233;50.804;7.126;2023-03-15T16:14:11;3.70;;;0.32;;
33954;SDS011;20233;50.804;7.126;2023-03-15T16:16:40;4.38;;;0.40;;